Time;durP1;ratioP1;P1;durP2;ratioP2;P2;SDS_P1;SDS_P2;PMS_P1;PMS_P2;Temp;Humidity;BMP_temperature;BMP_pressure;BME280_temperature;BME280_humidity;BME280_pressure;Samples;Min_cycle;Max_cycle;Signal;HPM_P1;HPM_P2
2021/03/31 00:01:27;;;;;;;32.33;16.17;;;;;;;;;;10375544;28;20274;-94
2021/03/31 00:06:29;;;;;;;33.97;16.00;;;;;;;;;;10371832;28;20224;-95
2021/03/31 00:11:32;;;;;;;33.13;16.23;;;;;;;;;;10370876;28;20226;-95
2021/03/31 00:16:34;;;;;;;36.53;17.70;;;;;;;;;;10371243;28;20247;-93
2021/03/31 00:21:37;;;;;;;33.37;17.90;;;;;;;;;;10378132;28;20225;-94
2021/03/31 00:26:40;;;;;;;34.93;17.30;;;;;;;;;;10374114;28;20220;-94
2021/03/31 00:31:43;;;;;;;35.13;16.00;;;;;;;;;;10373116;28;20219;-94
2021/03/31 00:36:45;;;;;;;30.07;15.20;;;;;;;;;;10373938;28;20240;-95
2021/03/31 00:41:48;;;;;;;32.03;15.90;;;;;;;;;;10376200;28;20240;-94
2021/03/31 00:46:50;;;;;;;29.57;15.90;;;;;;;;;;10373196;28;20224;-94
2021/03/31 00:51:53;;;;;;;34.03;16.27;;;;;;;;;;10375753;28;20213;-95
2021/03/31 00:56:56;;;;;;;27.30;15.60;;;;;;;;;;10377623;28;20307;-95
2021/03/31 01:01:58;;;;;;;32.40;16.23;;;;;;;;;;10374603;28;20212;-94
2021/03/31 01:07:00;;;;;;;28.37;14.97;;;;;;;;;;10382169;28;20236;-93
2021/03/31 01:12:08;;;;;;;26.97;15.10;;;;;;;;;;10374215;28;20216;-94
2021/03/31 01:17:12;;;;;;;29.23;15.40;;;;;;;;;;10380713;28;20243;-94
2021/03/31 01:22:44;;;;;;;27.20;14.47;;;;;;;;;;10373230;28;20516;-94
2021/03/31 01:27:53;;;;;;;29.00;15.07;;;;;;;;;;10370913;28;20216;-94
2021/03/31 01:33:12;;;;;;;28.90;15.47;;;;;;;;;;10373941;28;20760;-95
2021/03/31 01:38:15;;;;;;;30.90;14.87;;;;;;;;;;10371019;28;20211;-94
2021/03/31 01:43:19;;;;;;;28.40;15.03;;;;;;;;;;10365405;28;20220;-93
2021/03/31 01:48:22;;;;;;;33.20;15.73;;;;;;;;;;10379751;28;20216;-94
2021/03/31 01:53:26;;;;;;;31.43;14.30;;;;;;;;;;10369927;28;20759;-94
2021/03/31 01:58:32;;;;;;;29.53;15.57;;;;;;;;;;10365998;28;20218;-94
2021/03/31 02:03:34;;;;;;;28.87;15.93;;;;;;;;;;10377818;28;20241;-91
2021/03/31 02:08:40;;;;;;;34.70;16.53;;;;;;;;;;10396517;28;20294;-94
2021/03/31 02:13:56;;;;;;;30.37;15.67;;;;;;;;;;10393705;28;20306;-94
2021/03/31 02:19:00;;;;;;;29.03;15.43;;;;;;;;;;10378127;28;20782;-94
2021/03/31 02:24:03;;;;;;;28.30;15.13;;;;;;;;;;10399819;28;20753;-94
2021/03/31 02:29:05;;;;;;;32.27;15.73;;;;;;;;;;10401615;28;20208;-94
2021/03/31 02:34:08;;;;;;;28.60;15.07;;;;;;;;;;10402203;28;20236;-94
2021/03/31 02:39:14;;;;;;;31.27;15.53;;;;;;;;;;10387561;28;20644;-95
2021/03/31 02:44:17;;;;;;;30.80;15.93;;;;;;;;;;10383267;28;20235;-95
2021/03/31 02:49:20;;;;;;;28.07;14.63;;;;;;;;;;10393239;28;20222;-94
2021/03/31 02:54:23;;;;;;;31.37;14.53;;;;;;;;;;10385324;28;20327;-94
2021/03/31 02:59:25;;;;;;;28.77;14.53;;;;;;;;;;10388795;28;20688;-94
2021/03/31 03:04:28;;;;;;;30.93;15.43;;;;;;;;;;10402451;28;20236;-94
2021/03/31 03:09:31;;;;;;;27.33;14.80;;;;;;;;;;10392111;28;20276;-94
2021/03/31 03:14:34;;;;;;;29.53;14.63;;;;;;;;;;10407119;28;20232;-95
2021/03/31 03:19:37;;;;;;;29.07;14.30;;;;;;;;;;10405836;28;20223;-94
2021/03/31 03:24:43;;;;;;;27.47;15.17;;;;;;;;;;10392716;28;20212;-94
2021/03/31 03:29:45;;;;;;;28.23;14.73;;;;;;;;;;10421190;28;20215;-92
2021/03/31 03:34:50;;;;;;;27.07;14.53;;;;;;;;;;10408133;28;20236;-93
2021/03/31 03:39:53;;;;;;;29.47;14.73;;;;;;;;;;10407592;28;20340;-93
2021/03/31 03:44:56;;;;;;;27.33;14.37;;;;;;;;;;10399302;28;20303;-93
2021/03/31 03:49:59;;;;;;;28.63;14.53;;;;;;;;;;10405518;28;20737;-93
2021/03/31 03:55:02;;;;;;;26.17;14.40;;;;;;;;;;10390634;28;20247;-91
2021/03/31 04:00:10;;;;;;;28.70;14.60;;;;;;;;;;10385062;28;20220;-92
2021/03/31 04:05:13;;;;;;;28.10;14.80;;;;;;;;;;10367129;28;20232;-87
2021/03/31 04:10:16;;;;;;;33.10;14.47;;;;;;;;;;10365871;28;20212;-86
2021/03/31 04:15:19;;;;;;;25.93;14.70;;;;;;;;;;10367036;28;20237;-88
2021/03/31 04:20:23;;;;;;;30.20;14.87;;;;;;;;;;10363881;28;20220;-86
2021/03/31 04:25:26;;;;;;;28.87;15.53;;;;;;;;;;10362118;28;20224;-87
2021/03/31 04:30:29;;;;;;;32.77;15.30;;;;;;;;;;10388564;28;20243;-95
2021/03/31 04:35:34;;;;;;;30.20;16.17;;;;;;;;;;10387419;28;20240;-95
2021/03/31 04:40:43;;;;;;;31.20;16.03;;;;;;;;;;10388005;28;20311;-95
2021/03/31 04:45:46;;;;;;;32.03;16.17;;;;;;;;;;10365484;28;20219;-90
2021/03/31 04:50:47;;;;;;;32.77;16.43;;;;;;;;;;10358859;28;20221;-83
2021/03/31 04:55:50;;;;;;;32.47;16.47;;;;;;;;;;10363260;28;20243;-83
2021/03/31 05:00:52;;;;;;;33.60;16.87;;;;;;;;;;10362765;28;20224;-87
2021/03/31 05:05:57;;;;;;;34.57;16.57;;;;;;;;;;10365052;28;20373;-87
2021/03/31 05:11:00;;;;;;;31.47;17.03;;;;;;;;;;10375347;28;20231;-92
2021/03/31 05:16:02;;;;;;;33.63;17.53;;;;;;;;;;10376415;28;20636;-91
2021/03/31 05:21:05;;;;;;;34.03;17.47;;;;;;;;;;10378899;28;20209;-91
2021/03/31 05:26:07;;;;;;;37.90;18.40;;;;;;;;;;10377284;28;20224;-90
2021/03/31 05:31:10;;;;;;;33.80;17.87;;;;;;;;;;10371280;28;20805;-90
2021/03/31 05:36:12;;;;;;;35.07;18.33;;;;;;;;;;10366893;28;20734;-91
2021/03/31 05:41:15;;;;;;;40.30;19.77;;;;;;;;;;10368751;28;20226;-91
2021/03/31 05:46:16;;;;;;;37.70;19.03;;;;;;;;;;10378392;28;20694;-90
2021/03/31 05:51:19;;;;;;;40.10;19.80;;;;;;;;;;10366867;28;20293;-90
2021/03/31 05:56:21;;;;;;;36.73;19.83;;;;;;;;;;10376191;28;20236;-91
2021/03/31 06:01:24;;;;;;;42.97;20.27;;;;;;;;;;10370645;28;20220;-90
2021/03/31 06:06:26;;;;;;;44.10;20.83;;;;;;;;;;10378274;28;20239;-90
2021/03/31 06:11:45;;;;;;;40.03;20.27;;;;;;;;;;10373524;28;20310;-90
2021/03/31 06:16:47;;;;;;;41.53;19.67;;;;;;;;;;10368911;28;20240;-90
2021/03/31 06:21:56;;;;;;;41.00;20.43;;;;;;;;;;10370853;28;20213;-90
2021/03/31 06:26:59;;;;;;;48.20;20.97;;;;;;;;;;10369776;28;20212;-90
2021/03/31 06:32:13;;;;;;;44.20;21.00;;;;;;;;;;10362206;28;20220;-89
2021/03/31 06:37:22;;;;;;;41.83;21.13;;;;;;;;;;10371744;28;20243;-90
2021/03/31 06:42:36;;;;;;;46.53;21.87;;;;;;;;;;10365543;28;20247;-88
2021/03/31 06:47:42;;;;;;;43.00;21.20;;;;;;;;;;10367194;28;20797;-88
2021/03/31 06:52:54;;;;;;;41.47;21.40;;;;;;;;;;10367124;28;20308;-87
2021/03/31 06:57:57;;;;;;;40.33;20.77;;;;;;;;;;10361615;28;20583;-89
2021/03/31 07:03:02;;;;;;;44.47;21.80;;;;;;;;;;10367999;28;20227;-88
2021/03/31 07:08:05;;;;;;;44.07;22.50;;;;;;;;;;10370362;28;20224;-88
2021/03/31 07:13:08;;;;;;;44.30;21.70;;;;;;;;;;10376760;28;20224;-89
2021/03/31 07:18:10;;;;;;;41.60;21.43;;;;;;;;;;10381722;28;20326;-88
2021/03/31 07:23:12;;;;;;;43.53;22.37;;;;;;;;;;10381310;28;20244;-89
2021/03/31 07:28:17;;;;;;;51.17;22.50;;;;;;;;;;10379306;28;20686;-88
2021/03/31 07:33:22;;;;;;;43.30;22.90;;;;;;;;;;10377352;28;20227;-89
2021/03/31 07:38:25;;;;;;;45.73;23.43;;;;;;;;;;10375129;28;20354;-89
2021/03/31 07:43:31;;;;;;;46.60;22.37;;;;;;;;;;10372796;28;20690;-89
2021/03/31 07:48:33;;;;;;;41.67;22.50;;;;;;;;;;10369797;28;20215;-89
2021/03/31 07:53:41;;;;;;;41.10;21.93;;;;;;;;;;10374164;28;22690;-89
2021/03/31 07:59:07;;;;;;;43.20;22.33;;;;;;;;;;10372754;28;20249;-90
2021/03/31 08:04:13;;;;;;;41.17;21.47;;;;;;;;;;10380425;28;20716;-89
2021/03/31 08:09:20;;;;;;;43.23;22.73;;;;;;;;;;10373857;28;20217;-91
2021/03/31 08:14:39;;;;;;;45.33;23.07;;;;;;;;;;10369654;28;20220;-89
2021/03/31 08:20:03;;;;;;;42.47;23.60;;;;;;;;;;10381903;28;20356;-90
2021/03/31 08:25:13;;;;;;;43.13;22.43;;;;;;;;;;10381300;28;20238;-89
2021/03/31 08:30:19;;;;;;;42.20;22.80;;;;;;;;;;10372260;28;20216;-89
2021/03/31 08:35:22;;;;;;;41.40;21.47;;;;;;;;;;10378510;28;20309;-89
2021/03/31 08:40:29;;;;;;;40.13;22.57;;;;;;;;;;10377023;28;21469;-90
2021/03/31 08:45:42;;;;;;;42.33;23.27;;;;;;;;;;10370097;28;20217;-90
2021/03/31 08:50:46;;;;;;;42.73;23.77;;;;;;;;;;10378826;28;20216;-88
2021/03/31 08:55:49;;;;;;;44.43;24.57;;;;;;;;;;10380147;28;20239;-90
2021/03/31 09:00:54;;;;;;;53.13;24.73;;;;;;;;;;10388403;28;20209;-89
2021/03/31 09:06:08;;;;;;;45.53;23.40;;;;;;;;;;10384446;28;20243;-90
2021/03/31 09:11:11;;;;;;;44.30;23.20;;;;;;;;;;10370985;28;20666;-90
2021/03/31 09:16:15;;;;;;;48.20;24.03;;;;;;;;;;10378669;28;20326;-90
2021/03/31 09:21:26;;;;;;;40.63;22.87;;;;;;;;;;10375287;28;20506;-89
2021/03/31 09:26:28;;;;;;;41.37;23.03;;;;;;;;;;10372981;28;20302;-88
2021/03/31 09:31:32;;;;;;;41.67;21.73;;;;;;;;;;10371992;28;20204;-90
2021/03/31 09:36:36;;;;;;;37.90;20.77;;;;;;;;;;10374960;28;20244;-89
2021/03/31 09:41:41;;;;;;;37.73;19.67;;;;;;;;;;10368284;28;20219;-89
2021/03/31 09:46:44;;;;;;;43.90;21.57;;;;;;;;;;10371919;28;20234;-89
2021/03/31 09:51:47;;;;;;;41.50;22.27;;;;;;;;;;10368751;28;20299;-88
2021/03/31 09:56:49;;;;;;;39.57;21.80;;;;;;;;;;10373390;28;20246;-89
2021/03/31 10:01:52;;;;;;;37.30;20.30;;;;;;;;;;10374655;28;20224;-91
2021/03/31 10:07:12;;;;;;;39.50;21.90;;;;;;;;;;10370084;28;20339;-91
2021/03/31 10:12:32;;;;;;;33.27;18.77;;;;;;;;;;10370788;28;20585;-91
2021/03/31 10:17:35;;;;;;;37.10;20.20;;;;;;;;;;10370575;28;20232;-90
2021/03/31 10:22:37;;;;;;;39.70;22.00;;;;;;;;;;10376612;28;20212;-90
2021/03/31 10:27:59;;;;;;;35.73;20.37;;;;;;;;;;10368605;28;20223;-91
2021/03/31 10:33:22;;;;;;;35.80;19.20;;;;;;;;;;10370951;28;20215;-89
2021/03/31 10:38:25;;;;;;;37.77;21.10;;;;;;;;;;10363303;28;20250;-89
2021/03/31 10:54:10;;;;;;;31.60;18.10;;;;;;;;;;10363982;28;20610;-90
2021/03/31 10:59:13;;;;;;;32.23;17.17;;;;;;;;;;10373228;28;20212;-89
2021/03/31 11:04:15;;;;;;;31.33;16.33;;;;;;;;;;10374157;28;20722;-89
2021/03/31 11:09:17;;;;;;;37.90;19.20;;;;;;;;;;10382721;28;20678;-88
2021/03/31 11:14:19;;;;;;;31.50;15.40;;;;;;;;;;10377500;28;20219;-89
2021/03/31 11:19:41;;;;;;;25.63;14.17;;;;;;;;;;10372022;28;20650;-89
2021/03/31 11:30:03;;;;;;;22.87;12.20;;;;;;;;;;10367781;28;20290;-89
2021/03/31 11:35:06;;;;;;;37.53;19.07;;;;;;;;;;10374249;28;20347;-89
2021/03/31 11:40:08;;;;;;;35.00;17.70;;;;;;;;;;10375901;28;20215;-89
2021/03/31 11:45:11;;;;;;;37.30;17.83;;;;;;;;;;10375097;28;20220;-89
2021/03/31 11:50:14;;;;;;;29.43;14.37;;;;;;;;;;10374604;28;20220;-89
2021/03/31 11:55:16;;;;;;;37.57;16.87;;;;;;;;;;10380223;28;20248;-89
2021/03/31 12:00:20;;;;;;;28.17;14.23;;;;;;;;;;10368467;28;20213;-87
2021/03/31 12:05:23;;;;;;;22.87;11.50;;;;;;;;;;10368592;28;20239;-89
2021/03/31 12:10:25;;;;;;;24.57;11.57;;;;;;;;;;10371024;28;20811;-89
2021/03/31 12:15:27;;;;;;;20.77;10.03;;;;;;;;;;10379326;28;20251;-89
2021/03/31 12:20:30;;;;;;;22.13;10.87;;;;;;;;;;10377975;28;20239;-89
2021/03/31 12:25:33;;;;;;;22.23;10.40;;;;;;;;;;10378021;28;20705;-88
2021/03/31 12:30:34;;;;;;;25.90;13.17;;;;;;;;;;10376087;28;20208;-90
2021/03/31 12:35:37;;;;;;;30.77;13.80;;;;;;;;;;10371969;28;20298;-90
2021/03/31 12:40:39;;;;;;;16.37;8.00;;;;;;;;;;10370473;28;20303;-87
2021/03/31 12:45:41;;;;;;;25.40;12.40;;;;;;;;;;10371754;28;20824;-92
2021/03/31 12:50:45;;;;;;;26.17;11.30;;;;;;;;;;10373502;28;20689;-88
2021/03/31 12:55:50;;;;;;;21.20;9.33;;;;;;;;;;10369043;28;20236;-91
2021/03/31 13:00:54;;;;;;;32.53;15.17;;;;;;;;;;10376322;28;20213;-91
2021/03/31 13:06:17;;;;;;;18.43;9.53;;;;;;;;;;10367289;28;20224;-91
2021/03/31 13:11:39;;;;;;;29.10;13.23;;;;;;;;;;10368966;28;20669;-89
2021/03/31 13:16:46;;;;;;;30.97;14.90;;;;;;;;;;10367938;28;20893;-90
2021/03/31 13:27:22;;;;;;;22.57;10.97;;;;;;;;;;10374128;28;20232;-89
2021/03/31 13:32:27;;;;;;;33.33;14.70;;;;;;;;;;10374298;28;20561;-89
2021/03/31 13:37:33;;;;;;;27.50;13.77;;;;;;;;;;10366882;28;20343;-89
2021/03/31 13:42:36;;;;;;;19.17;9.83;;;;;;;;;;10370224;28;20295;-87
2021/03/31 13:47:40;;;;;;;20.77;10.03;;;;;;;;;;10370051;28;20214;-88
2021/03/31 13:53:03;;;;;;;16.27;8.37;;;;;;;;;;10373011;28;20217;-88
2021/03/31 13:58:06;;;;;;;14.20;8.07;;;;;;;;;;10365024;28;20863;-89
2021/03/31 14:03:08;;;;;;;14.47;7.40;;;;;;;;;;10373853;28;20677;-89
2021/03/31 14:08:11;;;;;;;15.30;8.20;;;;;;;;;;10373647;28;20885;-90
2021/03/31 14:13:34;;;;;;;17.13;8.00;;;;;;;;;;10368245;28;20204;-89
2021/03/31 14:18:56;;;;;;;17.77;8.47;;;;;;;;;;10371759;28;20231;-89
2021/03/31 14:23:59;;;;;;;26.07;11.80;;;;;;;;;;10384284;28;20247;-89
2021/03/31 14:29:01;;;;;;;20.03;10.37;;;;;;;;;;10380176;28;20218;-89
2021/03/31 14:34:04;;;;;;;18.27;9.57;;;;;;;;;;10385824;28;20222;-90
2021/03/31 14:39:27;;;;;;;20.53;9.73;;;;;;;;;;10385784;28;20208;-87
2021/03/31 14:44:50;;;;;;;19.13;10.30;;;;;;;;;;10381436;28;20250;-87
2021/03/31 14:49:52;;;;;;;19.83;9.00;;;;;;;;;;10380048;28;20307;-89
2021/03/31 15:00:25;;;;;;;30.97;13.90;;;;;;;;;;10339807;28;20462;-89
2021/03/31 15:05:27;;;;;;;14.97;8.70;;;;;;;;;;10383135;28;20239;-88
2021/03/31 15:10:30;;;;;;;19.47;10.77;;;;;;;;;;10373719;28;20208;-88
2021/03/31 15:15:52;;;;;;;46.13;22.47;;;;;;;;;;10381601;28;20235;-90
2021/03/31 15:21:26;;;;;;;20.33;11.07;;;;;;;;;;10381937;28;20498;-88
2021/03/31 15:26:49;;;;;;;25.27;12.90;;;;;;;;;;10373556;28;20234;-87
2021/03/31 15:32:11;;;;;;;45.73;22.07;;;;;;;;;;10373120;28;20216;-89
2021/03/31 15:37:13;;;;;;;34.93;16.93;;;;;;;;;;10371206;28;20224;-90
2021/03/31 15:42:15;;;;;;;29.03;13.63;;;;;;;;;;10376094;28;20212;-88
2021/03/31 15:47:25;;;;;;;49.23;21.80;;;;;;;;;;10365892;28;20311;-89
2021/03/31 15:52:27;;;;;;;37.17;17.80;;;;;;;;;;10374025;28;20213;-91
2021/03/31 15:57:30;;;;;;;51.13;22.97;;;;;;;;;;10371016;28;20242;-92
2021/03/31 16:02:39;;;;;;;44.90;21.07;;;;;;;;;;10377141;28;21914;-91
2021/03/31 16:07:41;;;;;;;52.23;24.27;;;;;;;;;;10375334;28;20209;-90
2021/03/31 16:12:44;;;;;;;45.03;21.40;;;;;;;;;;10368627;28;20664;-90
2021/03/31 16:17:46;;;;;;;45.53;19.13;;;;;;;;;;10381542;28;20232;-90
2021/03/31 16:22:48;;;;;;;44.63;19.90;;;;;;;;;;10368218;28;20219;-92
2021/03/31 16:27:55;;;;;;;33.23;15.17;;;;;;;;;;10359427;28;20652;-81
2021/03/31 16:32:57;;;;;;;26.83;11.63;;;;;;;;;;10359055;28;20217;-79
2021/03/31 16:37:59;;;;;;;22.40;8.60;;;;;;;;;;10360380;28;20236;-81
2021/03/31 16:43:02;;;;;;;20.50;8.63;;;;;;;;;;10358438;28;20216;-84
2021/03/31 16:48:04;;;;;;;14.10;6.80;;;;;;;;;;10360866;28;20223;-83
2021/03/31 16:53:06;;;;;;;13.70;7.23;;;;;;;;;;10352579;28;20213;-86
2021/03/31 16:58:14;;;;;;;13.17;6.10;;;;;;;;;;10357140;28;20756;-85
2021/03/31 17:15:19;;;;;;;13.73;6.60;;;;;;;;;;10367719;28;20291;-88
2021/03/31 17:20:22;;;;;;;13.13;6.30;;;;;;;;;;10365468;28;20232;-86
2021/03/31 17:25:28;;;;;;;15.23;7.37;;;;;;;;;;10360588;28;20705;-91
2021/03/31 17:30:31;;;;;;;21.67;8.33;;;;;;;;;;10345633;28;20231;-88
2021/03/31 17:35:34;;;;;;;16.85;8.10;;;;;;;;;;10341616;28;20482;-88
2021/03/31 17:40:40;;;;;;;21.13;8.63;;;;;;;;;;10352621;28;20212;-90
2021/03/31 17:45:43;;;;;;;17.03;8.67;;;;;;;;;;10347679;28;20220;-88
2021/03/31 17:50:45;;;;;;;16.47;8.37;;;;;;;;;;10353069;28;20219;-90
2021/03/31 17:55:52;;;;;;;18.03;8.17;;;;;;;;;;10344526;28;20614;-89
2021/03/31 18:00:54;;;;;;;17.30;8.43;;;;;;;;;;10348068;28;20678;-88
2021/03/31 18:05:56;;;;;;;19.70;9.00;;;;;;;;;;10347478;28;20232;-89
2021/03/31 18:10:58;;;;;;;19.33;8.97;;;;;;;;;;10354715;28;20217;-88
2021/03/31 18:16:00;;;;;;;20.50;9.90;;;;;;;;;;10343877;28;20240;-87
2021/03/31 18:21:02;;;;;;;20.27;9.10;;;;;;;;;;10346907;28;20228;-88
2021/03/31 18:26:04;;;;;;;23.17;10.80;;;;;;;;;;10349557;28;20220;-87
2021/03/31 18:31:07;;;;;;;24.63;11.57;;;;;;;;;;10347048;28;20220;-88
2021/03/31 18:36:09;;;;;;;23.10;10.93;;;;;;;;;;10353091;28;20692;-87
2021/03/31 18:41:21;;;;;;;24.33;11.13;;;;;;;;;;10345718;28;20220;-87
2021/03/31 18:46:29;;;;;;;27.67;11.50;;;;;;;;;;10350918;28;20240;-89
2021/03/31 18:51:30;;;;;;;23.80;11.87;;;;;;;;;;10354798;28;20209;-88
2021/03/31 18:56:32;;;;;;;25.73;12.17;;;;;;;;;;10352813;28;20233;-91
2021/03/31 19:01:35;;;;;;;26.07;11.80;;;;;;;;;;10349885;28;20370;-80
2021/03/31 19:06:42;;;;;;;26.50;12.90;;;;;;;;;;10355757;28;20243;-78
2021/03/31 19:11:49;;;;;;;27.67;12.33;;;;;;;;;;10360632;28;20213;-80
2021/03/31 19:16:53;;;;;;;27.10;12.57;;;;;;;;;;10364765;28;20247;-79
2021/03/31 19:21:55;;;;;;;28.90;13.17;;;;;;;;;;10363678;28;20216;-79
2021/03/31 19:26:57;;;;;;;35.53;17.40;;;;;;;;;;10361944;28;20223;-79
2021/03/31 19:32:06;;;;;;;42.83;21.80;;;;;;;;;;10356635;28;20221;-79
2021/03/31 21:38:13;;;;;;;25.43;12.27;;;;;;;;;;10358599;28;20232;-79
2021/03/31 21:43:20;;;;;;;28.73;12.80;;;;;;;;;;10360394;28;20216;-79
2021/03/31 21:48:27;;;;;;;28.37;13.83;;;;;;;;;;10358522;28;20208;-80
2021/03/31 21:53:30;;;;;;;26.77;13.13;;;;;;;;;;10361011;28;20291;-80
2021/03/31 21:58:32;;;;;;;26.60;12.97;;;;;;;;;;10351902;28;20236;-80
2021/03/31 22:03:34;;;;;;;26.40;12.63;;;;;;;;;;10358174;28;20232;-79
2021/03/31 22:08:37;;;;;;;29.43;13.30;;;;;;;;;;10360264;28;20244;-79
2021/03/31 22:13:43;;;;;;;28.27;13.43;;;;;;;;;;10350847;28;20227;-80
2021/03/31 22:18:46;;;;;;;25.97;13.60;;;;;;;;;;10356725;28;20244;-78
2021/03/31 22:23:49;;;;;;;32.37;13.37;;;;;;;;;;10353497;28;20216;-78
2021/03/31 22:28:51;;;;;;;30.10;14.07;;;;;;;;;;10353129;28;20213;-78
2021/03/31 22:33:54;;;;;;;31.23;14.30;;;;;;;;;;10357128;28;20224;-78
2021/03/31 22:38:57;;;;;;;31.07;14.17;;;;;;;;;;10361988;28;20725;-79
2021/03/31 22:43:59;;;;;;;31.47;14.00;;;;;;;;;;10363348;28;20588;-79
2021/03/31 22:49:04;;;;;;;29.67;13.97;;;;;;;;;;10360324;28;20303;-79
2021/03/31 22:54:10;;;;;;;28.13;13.70;;;;;;;;;;10358939;28;20217;-79
2021/03/31 22:59:12;;;;;;;29.20;14.13;;;;;;;;;;10367746;28;20232;-78
2021/03/31 23:04:16;;;;;;;25.93;13.20;;;;;;;;;;10367144;28;20240;-80
2021/03/31 23:09:19;;;;;;;26.60;13.60;;;;;;;;;;10379632;28;20215;-79
2021/03/31 23:14:21;;;;;;;27.53;13.07;;;;;;;;;;10369794;28;20760;-80
2021/03/31 23:19:26;;;;;;;23.83;12.43;;;;;;;;;;10363845;28;20736;-79
2021/03/31 23:24:29;;;;;;;28.57;13.63;;;;;;;;;;10359896;28;20844;-80
2021/03/31 23:29:32;;;;;;;27.73;13.57;;;;;;;;;;10367358;28;20217;-80
2021/03/31 23:34:35;;;;;;;25.83;13.50;;;;;;;;;;10364363;28;20251;-79
2021/03/31 23:39:38;;;;;;;27.50;13.63;;;;;;;;;;10368985;28;20232;-79
2021/03/31 23:44:40;;;;;;;24.67;12.60;;;;;;;;;;10370435;28;20220;-79
2021/03/31 23:49:42;;;;;;;26.97;12.83;;;;;;;;;;10360440;28;20362;-79
2021/03/31 23:54:45;;;;;;;24.63;12.40;;;;;;;;;;10361906;28;20282;-81
2021/03/31 23:59:47;;;;;;;28.03;13.57;;;;;;;;;;10359704;28;20243;-79
